Time;durP1;ratioP1;P1;durP2;ratioP2;P2;SDS_P1;SDS_P2;PMS_P1;PMS_P2;Temp;Humidity;BMP_temperature;BMP_pressure;BME280_temperature;BME280_humidity;BME280_pressure;Samples;Min_cycle;Max_cycle;Signal;HPM_P1;HPM_P2
2024/02/08 00:00:31;;;;;;;12.80;5.30;;;;;;;9.92;59.12;99195.53;123702;1099;104316;-79
2024/02/08 00:03:22;;;;;;;14.63;5.00;;;;;;;9.91;58.88;99201.65;123860;1099;104476;-79
2024/02/08 00:05:53;;;;;;;10.60;4.67;;;;;;;9.92;58.71;99203.39;123765;1099;104175;-79
2024/02/08 00:08:24;;;;;;;11.73;5.07;;;;;;;9.92;58.72;99194.66;123967;1099;104242;-79
2024/02/08 00:10:55;;;;;;;12.47;4.87;;;;;;;9.92;59.32;99197.28;123942;1099;104389;-79
2024/02/08 00:13:28;;;;;;;11.23;4.97;;;;;;;9.91;59.05;99201.65;123972;1099;104298;-79
2024/02/08 00:15:59;;;;;;;12.03;5.07;;;;;;;9.90;58.80;99202.50;123947;1099;104232;-79
2024/02/08 00:18:30;;;;;;;14.30;5.00;;;;;;;9.88;59.26;99207.70;124032;1099;104325;-79
2024/02/08 00:21:01;;;;;;;11.23;5.10;;;;;;;9.87;59.01;99202.44;123768;1099;104303;-79
2024/02/08 00:23:32;;;;;;;11.73;4.57;;;;;;;9.87;58.88;99207.68;123956;1099;104251;-80
2024/02/08 00:26:04;;;;;;;9.83;5.23;;;;;;;9.86;59.39;99200.66;124133;1098;104367;-79
2024/02/08 00:28:35;;;;;;;11.40;5.25;;;;;;;9.85;59.10;99204.16;123662;1099;104450;-79
2024/02/08 00:31:07;;;;;;;13.27;4.80;;;;;;;9.83;59.34;99211.09;123790;1101;104284;-80
2024/02/08 00:33:39;;;;;;;10.73;4.70;;;;;;;9.84;59.10;99205.00;123780;1101;104300;-78
2024/02/08 00:36:11;;;;;;;10.17;4.73;;;;;;;9.84;59.11;99202.39;123686;1099;104211;-80
2024/02/08 00:38:43;;;;;;;10.90;4.60;;;;;;;9.84;58.83;99203.26;123804;1099;104370;-79
2024/02/08 00:41:14;;;;;;;13.60;4.85;;;;;;;9.85;59.42;99204.16;124008;1099;104251;-79
2024/02/08 00:43:45;;;;;;;10.60;4.53;;;;;;;9.82;58.67;99204.11;124018;1099;104252;-79
2024/02/08 00:46:16;;;;;;;10.63;4.50;;;;;;;9.80;59.49;99200.55;124182;1099;104275;-81
2024/02/08 00:48:47;;;;;;;10.33;4.93;;;;;;;9.78;58.84;99204.89;124017;1099;104252;-79
2024/02/08 00:51:20;;;;;;;9.47;4.53;;;;;;;9.76;58.68;99210.10;124013;1099;104296;-78
2024/02/08 00:53:51;;;;;;;9.07;4.20;;;;;;;9.75;59.39;99212.70;124049;1099;104204;-79
2024/02/08 00:56:22;;;;;;;12.27;5.30;;;;;;;9.71;59.42;99207.41;124085;1099;104226;-79
2024/02/08 00:58:53;;;;;;;11.97;5.07;;;;;;;9.68;59.31;99211.71;124181;1099;104277;-79
2024/02/08 01:01:25;;;;;;;10.97;5.10;;;;;;;9.64;58.81;99209.88;124194;1099;104255;-80
2024/02/08 01:03:56;;;;;;;11.27;4.60;;;;;;;9.60;58.92;99214.19;124095;1098;104440;-78
2024/02/08 01:06:30;;;;;;;13.60;4.60;;;;;;;9.60;58.94;99214.19;124004;1099;104326;-79
2024/02/08 01:09:01;;;;;;;9.53;4.37;;;;;;;9.59;59.19;99217.64;123787;1099;104251;-78
2024/02/08 01:11:32;;;;;;;11.53;4.43;;;;;;;9.56;59.05;99214.97;124004;1098;104283;-79
2024/02/08 01:14:04;;;;;;;12.27;4.93;;;;;;;9.56;59.06;99217.59;123947;1099;104338;-79
2024/02/08 01:16:46;;;;;;;10.50;4.60;;;;;;;9.56;59.00;99214.09;123788;1099;104361;-79
2024/02/08 01:19:22;;;;;;;8.93;4.50;;;;;;;9.53;59.12;99214.91;123728;1099;104261;-79
2024/02/08 01:22:05;;;;;;;10.97;4.27;;;;;;;9.49;59.40;99207.83;123857;1099;104281;-80
2024/02/08 01:24:39;;;;;;;11.40;4.57;;;;;;;9.49;59.09;99199.98;123976;1098;104261;-79
2024/02/08 01:27:10;;;;;;;16.50;5.10;;;;;;;9.46;59.03;99190.35;123963;1099;104232;-79
2024/02/08 01:29:41;;;;;;;11.13;4.90;;;;;;;9.46;59.80;99194.72;123664;1099;104330;-78
2024/02/08 01:32:15;;;;;;;9.93;4.70;;;;;;;9.47;59.50;99204.31;123967;1099;104309;-78
2024/02/08 01:34:46;;;;;;;10.63;4.80;;;;;;;9.45;59.19;99203.41;123773;1099;104447;-78
2024/02/08 01:37:21;;;;;;;10.97;4.27;;;;;;;9.44;59.54;99212.11;123986;1099;104383;-78
2024/02/08 01:39:52;;;;;;;10.70;4.60;;;;;;;9.41;59.17;99215.57;124065;1099;104312;-79
2024/02/08 01:42:23;;;;;;;14.03;5.10;;;;;;;9.38;59.50;99212.89;124165;1099;104363;-79
2024/02/08 01:45:38;;;;;;;11.10;4.60;;;;;;;9.36;59.35;99214.58;124003;1099;104409;-80
2024/02/08 01:48:11;;;;;;;12.90;4.67;;;;;;;9.34;59.38;99213.67;124131;1099;104309;-79
2024/02/08 01:50:45;;;;;;;18.57;4.70;;;;;;;9.33;60.04;99211.89;123784;1099;104814;-78
2024/02/08 01:53:20;;;;;;;11.23;4.70;;;;;;;9.29;59.29;99218.81;124130;1099;104255;-80
2024/02/08 01:55:52;;;;;;;9.40;4.30;;;;;;;9.28;59.45;99213.55;123908;1099;104437;-80
2024/02/08 01:58:25;;;;;;;10.40;4.53;;;;;;;9.29;59.80;99210.96;123901;1099;104310;-80
2024/02/08 02:01:01;;;;;;;14.57;4.60;;;;;;;9.30;59.87;99204.89;124251;1099;104213;-79
2024/02/08 02:03:32;;;;;;;12.70;4.30;;;;;;;9.32;60.22;99208.41;123667;1102;104306;-78
2024/02/08 02:06:08;;;;;;;9.77;4.10;;;;;;;9.34;60.19;99206.69;123990;1098;104504;-79
2024/02/08 02:08:39;;;;;;;8.77;4.40;;;;;;;9.35;59.61;99208.47;124117;1099;104241;-79
2024/02/08 02:11:19;;;;;;;11.47;4.67;;;;;;;9.34;60.31;99211.92;123990;1098;104320;-79
2024/02/08 02:13:54;;;;;;;15.00;4.80;;;;;;;9.33;59.96;99215.42;123989;1099;104697;-79
2024/02/08 02:16:26;;;;;;;11.63;4.60;;;;;;;9.34;59.81;99209.31;123980;1099;104220;-79
2024/02/08 02:18:57;;;;;;;11.80;4.50;;;;;;;9.34;59.68;99206.69;124010;1099;104238;-79
2024/02/08 02:21:29;;;;;;;10.67;4.57;;;;;;;9.35;60.25;99213.70;123941;1099;119007;-79
2024/02/08 02:24:00;;;;;;;8.60;4.30;;;;;;;9.38;60.00;99215.51;123736;1099;104689;-79
2024/02/08 02:26:32;;;;;;;9.80;4.50;;;;;;;9.39;59.83;99212.02;124015;1099;104255;-80
2024/02/08 02:29:06;;;;;;;10.43;4.13;;;;;;;9.38;59.70;99212.89;124123;1098;104198;-80
2024/02/08 02:31:38;;;;;;;9.00;4.40;;;;;;;9.38;59.85;99215.51;124018;1099;104304;-79
2024/02/08 02:34:09;;;;;;;9.03;4.67;;;;;;;9.35;60.35;99232.03;124217;1099;104300;-79
2024/02/08 02:36:44;;;;;;;12.10;4.63;;;;;;;9.37;60.06;99233.80;124106;1099;104530;-80
2024/02/08 02:39:17;;;;;;;11.07;4.90;;;;;;;9.37;59.89;99244.28;124189;1099;104293;-80
2024/02/08 02:41:56;;;;;;;10.30;4.60;;;;;;;9.35;60.44;99237.27;124118;1099;110229;-78
2024/02/08 02:44:28;;;;;;;14.07;5.23;;;;;;;9.38;59.89;99238.17;124251;1099;104293;-78
2024/02/08 02:47:00;;;;;;;13.47;4.93;;;;;;;9.38;60.03;99233.84;123614;1099;104367;-79
2024/02/08 02:49:36;;;;;;;14.10;5.00;;;;;;;9.36;59.97;99238.13;124357;1099;104517;-78
2024/02/08 02:52:08;;;;;;;9.87;4.70;;;;;;;9.34;60.43;99235.48;124210;1099;104373;-78
2024/02/08 02:54:42;;;;;;;9.17;4.67;;;;;;;9.32;60.48;99237.20;124252;1099;104248;-79
2024/02/08 02:57:15;;;;;;;13.40;4.80;;;;;;;9.33;60.07;99238.98;124091;1099;104335;-78
2024/02/08 02:59:46;;;;;;;10.80;4.73;;;;;;;9.34;60.52;99235.48;125437;1099;102153;-79
2024/02/08 03:02:23;;;;;;;10.00;4.63;;;;;;;9.32;60.11;99239.82;124124;1099;104322;-78
2024/02/08 03:04:54;;;;;;;10.80;4.73;;;;;;;9.31;60.00;99247.64;124123;1099;104254;-80
2024/02/08 03:07:28;;;;;;;11.47;5.07;;;;;;;9.33;60.80;99256.40;123987;1099;104309;-79
2024/02/08 03:09:59;;;;;;;11.03;5.10;;;;;;;9.35;60.39;99252.97;123753;1099;104335;-79
2024/02/08 03:12:31;;;;;;;12.20;4.53;;;;;;;9.38;60.25;99264.34;124100;1099;104309;-79
2024/02/08 03:15:03;;;;;;;10.90;5.53;;;;;;;9.37;60.11;99259.98;123978;1099;104395;-79
2024/02/08 03:17:34;;;;;;;10.67;5.10;;;;;;;9.37;60.54;99263.48;123847;1099;104284;-80
2024/02/08 03:20:08;;;;;;;11.70;5.07;;;;;;;9.38;60.42;99254.78;124216;1099;104281;-80
2024/02/08 03:22:39;;;;;;;10.35;5.05;;;;;;;9.39;60.72;99248.67;123808;1099;104252;-80
2024/02/08 03:25:14;;;;;;;8.20;4.47;;;;;;;9.42;60.28;99255.72;123943;1099;104379;-79
2024/02/08 03:27:51;;;;;;;13.50;5.10;;;;;;;9.43;60.42;99254.87;123816;1099;104312;-79
2024/02/08 03:30:23;;;;;;;14.03;5.40;;;;;;;9.46;60.42;99260.17;123947;1099;104737;-79
2024/02/08 03:32:56;;;;;;;9.17;4.57;;;;;;;9.46;60.91;99261.05;123871;1099;104245;-79
2024/02/08 03:35:36;;;;;;;9.33;4.58;;;;;;;9.45;60.92;99263.63;124180;1099;104264;-79
2024/02/08 03:38:08;;;;;;;11.37;4.90;;;;;;;9.42;60.27;99266.19;124184;1099;104162;-79
2024/02/08 03:40:39;;;;;;;12.37;4.63;;;;;;;9.40;60.85;99265.28;124047;1099;104415;-80
2024/02/08 03:43:11;;;;;;;10.73;4.70;;;;;;;9.37;60.40;99262.60;123653;1102;104802;-78
2024/02/08 03:45:42;;;;;;;18.60;5.63;;;;;;;9.33;60.74;99265.16;123915;1099;104351;-79
2024/02/08 03:48:14;;;;;;;14.07;5.40;;;;;;;9.34;60.39;99266.91;124101;1099;104224;-79
2024/02/08 03:50:50;;;;;;;36.07;7.50;;;;;;;9.37;60.77;99268.71;124096;1099;104382;-79
2024/02/08 03:53:24;;;;;;;31.80;6.87;;;;;;;9.35;60.69;99273.91;124200;1099;104357;-79
2024/02/08 03:55:55;;;;;;;20.50;5.43;;;;;;;9.37;60.50;99263.48;124005;1099;104262;-79
2024/02/08 03:58:27;;;;;;;20.87;5.77;;;;;;;9.37;61.11;99273.08;124152;1099;104248;-79
2024/02/08 04:01:00;;;;;;;20.80;5.67;;;;;;;9.30;61.06;99270.33;124445;1099;104162;-79
2024/02/08 04:03:53;;;;;;;14.93;5.30;;;;;;;9.25;60.54;99278.92;123867;1099;104290;-79
2024/02/08 04:06:49;;;;;;;12.07;4.83;;;;;;;9.21;60.56;99277.98;123948;1099;104376;-78
2024/02/08 04:09:33;;;;;;;14.53;5.90;;;;;;;9.18;61.11;99288.38;123955;1099;104255;-79
2024/02/08 04:54:34;;;;;;;17.73;7.00;;;;;;;8.67;61.22;99355.22;124150;1099;104281;-79
2024/02/08 04:57:07;;;;;;;23.30;8.80;;;;;;;8.59;61.71;99365.48;124223;1098;104350;-79
2024/02/08 04:59:44;;;;;;;22.27;8.87;;;;;;;8.52;62.00;99363.55;124213;1099;104382;-80
2024/02/08 05:02:15;;;;;;;20.85;9.40;;;;;;;8.45;61.48;99374.70;123939;1099;104226;-80
2024/02/08 05:04:48;;;;;;;19.67;7.77;;;;;;;8.40;61.15;99364.09;124271;1099;104344;-80
2024/02/08 05:07:20;;;;;;;16.03;7.33;;;;;;;8.39;61.82;99374.52;124111;1099;104175;-79
2024/02/08 05:09:51;;;;;;;18.47;7.17;;;;;;;8.38;61.30;99372.73;124104;1099;104319;-79
2024/02/08 05:12:22;;;;;;;17.57;7.90;;;;;;;8.36;61.59;99377.05;124004;1099;104269;-79
2024/02/08 05:14:53;;;;;;;21.80;7.20;;;;;;;8.34;61.45;99394.42;124009;1099;105133;-79
2024/02/08 05:17:25;;;;;;;19.83;8.40;;;;;;;8.28;62.00;99396.01;124088;1099;104248;-81
2024/02/08 05:19:56;;;;;;;22.83;8.70;;;;;;;8.25;61.31;99398.54;123711;1099;104341;-79
2024/02/08 05:22:28;;;;;;;21.13;9.97;;;;;;;8.28;62.12;99405.59;124195;1099;104351;-80
2024/02/08 05:24:59;;;;;;;23.40;9.50;;;;;;;8.29;61.81;99404.75;124162;1099;104316;-80
2024/02/08 05:27:31;;;;;;;21.77;9.33;;;;;;;8.24;61.46;99415.08;123836;1099;104482;-78
2024/02/08 05:30:03;;;;;;;24.23;8.80;;;;;;;8.23;62.18;99418.53;124459;1099;104259;-79
2024/02/08 05:32:35;;;;;;;26.30;9.00;;;;;;;8.20;61.70;99426.28;124263;1099;104650;-79
2024/02/08 05:35:13;;;;;;;19.53;7.70;;;;;;;8.17;62.30;99426.20;124233;1099;104284;-78
2024/02/08 05:37:44;;;;;;;23.07;8.27;;;;;;;8.13;61.69;99426.06;124110;1099;104282;-78
2024/02/08 05:40:15;;;;;;;21.53;8.47;;;;;;;8.06;61.74;99419.79;124388;1099;104418;-79
2024/02/08 05:42:47;;;;;;;21.97;8.80;;;;;;;8.09;62.22;99425.10;124381;1099;104280;-78
2024/02/08 05:45:30;;;;;;;19.03;8.70;;;;;;;8.14;61.99;99428.72;125270;1099;102405;-79
2024/02/08 05:48:05;;;;;;;22.00;8.93;;;;;;;8.20;62.19;99436.73;123974;1099;104437;-79
2024/02/08 05:50:37;;;;;;;19.20;8.23;;;;;;;8.28;62.12;99448.28;124006;1099;104405;-79
2024/02/08 05:53:08;;;;;;;23.83;8.93;;;;;;;8.33;62.56;99440.56;124503;1099;104229;-79
2024/02/08 05:55:40;;;;;;;25.77;8.13;;;;;;;8.33;62.31;99445.80;124304;1099;104647;-79
2024/02/08 05:58:16;;;;;;;26.40;9.10;;;;;;;8.34;62.59;99446.70;124367;1099;104293;-80
2024/02/08 06:01:01;;;;;;;21.60;8.80;;;;;;;8.32;62.49;99454.50;124156;1099;104175;-79
2024/02/08 06:03:37;;;;;;;20.43;8.73;;;;;;;8.33;62.92;99453.64;124497;1099;104206;-79
2024/02/08 06:06:17;;;;;;;23.20;8.40;;;;;;;8.41;62.52;99459.08;124289;1099;104354;-79
2024/02/08 06:08:56;;;;;;;23.50;8.43;;;;;;;8.43;62.77;99463.55;124404;1098;104252;-79
2024/02/08 06:11:27;;;;;;;19.77;7.53;;;;;;;8.43;62.83;99454.77;124342;1099;104163;-79
2024/02/08 06:13:59;;;;;;;19.20;7.40;;;;;;;8.50;62.93;99463.72;124392;1099;104229;-79
2024/02/08 06:16:45;;;;;;;19.20;7.47;;;;;;;8.54;63.21;99466.46;124586;1099;119074;-79
2024/02/08 06:19:17;;;;;;;21.73;7.73;;;;;;;8.55;63.26;99465.59;124792;1099;104331;-79
2024/02/08 06:21:54;;;;;;;23.23;8.13;;;;;;;8.54;62.65;99468.17;124705;1099;104255;-78
2024/02/08 06:24:32;;;;;;;20.30;7.70;;;;;;;8.57;62.73;99479.62;124846;1099;104255;-78
2024/02/08 06:27:14;;;;;;;16.07;7.20;;;;;;;8.58;62.88;99494.45;124898;1099;104210;-78
2024/02/08 06:29:47;;;;;;;21.73;7.77;;;;;;;8.57;63.25;99489.17;124839;1099;104335;-79
2024/02/08 06:32:34;;;;;;;21.23;8.10;;;;;;;8.62;63.07;99491.08;125064;1099;104278;-79
2024/02/08 06:35:11;;;;;;;22.20;8.77;;;;;;;8.66;62.71;99496.40;125226;1099;104223;-80
2024/02/08 06:38:00;;;;;;;21.70;8.43;;;;;;;8.73;63.28;99493.11;125348;1099;104255;-80
2024/02/08 06:40:50;;;;;;;20.77;8.13;;;;;;;8.80;62.84;99495.03;125270;1099;104200;-80
2024/02/08 06:43:44;;;;;;;19.07;8.90;;;;;;;8.79;63.39;99491.54;125247;1099;104287;-79
2024/02/08 06:46:28;;;;;;;26.55;10.63;;;;;;;8.79;62.77;99502.00;125226;1099;104175;-79
2024/02/08 07:38:14;;;;;;;20.13;6.17;;;;;;;8.76;63.67;99538.54;125381;1099;104245;-79
2024/02/08 07:40:51;;;;;;;18.00;5.93;;;;;;;8.76;63.41;99535.05;125326;1099;104172;-79
2024/02/08 07:43:34;;;;;;;15.87;5.50;;;;;;;8.75;63.23;99530.65;125255;1099;104159;-78
2024/02/08 07:46:16;;;;;;;15.77;5.30;;;;;;;8.83;63.32;99525.62;125109;1099;104169;-78
2024/02/08 07:48:58;;;;;;;11.93;4.70;;;;;;;8.88;64.12;99524.02;125253;1099;110897;-79
2024/02/08 07:51:33;;;;;;;10.60;4.60;;;;;;;8.90;63.45;99519.73;124855;1099;104699;-78
2024/02/08 07:54:20;;;;;;;20.03;5.23;;;;;;;8.99;63.57;99512.09;125186;1099;104245;-79
2024/02/08 07:57:00;;;;;;;14.75;4.80;;;;;;;9.13;63.58;99492.42;125036;1099;104273;-79
2024/02/08 07:59:34;;;;;;;14.17;4.40;;;;;;;9.22;64.00;99507.45;125090;1099;104258;-79
2024/02/08 08:02:16;;;;;;;;;;;;;;;9.31;63.82;99509.42;125214;1099;102454;-79
2024/02/08 08:04:58;;;;;;;12.30;4.10;;;;;;;9.33;63.99;99513.87;126624;1099;102410;-79
2024/02/08 08:07:45;;;;;;;12.63;4.30;;;;;;;9.45;63.38;99515.88;124563;1099;104327;-79
2024/02/08 08:10:25;;;;;;;15.13;4.63;;;;;;;9.52;64.01;99528.28;124972;1099;104191;-79
2024/02/08 08:13:06;;;;;;;7.50;3.65;;;;;;;9.55;63.26;99537.93;125259;1099;104182;-79
2024/02/08 08:15:49;;;;;;;9.75;4.45;;;;;;;9.53;63.66;99540.52;124732;1099;104248;-79
2024/02/08 08:18:29;;;;;;;9.90;4.00;;;;;;;9.51;63.68;99536.98;126757;1099;102213;-79
2024/02/08 08:21:04;;;;;;;12.80;3.93;;;;;;;9.59;63.27;99541.53;126445;1099;102910;-79
2024/02/08 08:23:35;;;;;;;8.47;3.60;;;;;;;9.63;63.65;99543.36;124917;1099;104188;-79
2024/02/08 08:29:02;;;;;;;15.87;4.47;;;;;;;9.42;63.27;99552.47;126428;1098;102474;-79
2024/02/08 08:31:46;;;;;;;11.80;4.03;;;;;;;9.35;63.40;99569.76;125670;1099;104182;-79
2024/02/08 08:37:38;;;;;;;10.83;3.90;;;;;;;9.15;62.79;99581.45;125471;1102;102333;-78
2024/02/08 08:42:58;;;;;;;10.97;3.63;;;;;;;8.98;62.80;99568.78;125384;1102;104233;-77
2024/02/08 08:45:32;;;;;;;;;;;;;;;9.00;62.77;99574.06;124920;1102;104406;-80
2024/02/08 08:48:08;;;;;;;12.30;3.33;;;;;;;8.97;63.02;99572.23;124834;1099;104060;-78
2024/02/08 08:50:43;;;;;;;10.90;4.13;;;;;;;8.96;62.79;99573.09;125256;1099;104335;-79
2024/02/08 08:54:00;;;;;;;10.10;3.80;;;;;;;8.95;63.02;99573.06;126041;1093;102402;-78
2024/02/08 08:56:31;;;;;;;11.63;3.70;;;;;;;9.06;62.74;99573.34;125279;1102;103013;-78
2024/02/08 08:59:04;;;;;;;13.13;4.67;;;;;;;9.07;62.65;99577.72;125375;1102;104181;-78
2024/02/08 09:01:39;;;;;;;13.83;4.40;;;;;;;9.04;62.27;99593.33;125199;1102;104219;-77
2024/02/08 09:04:25;;;;;;;19.70;5.30;;;;;;;9.03;62.72;99596.81;124702;1102;104382;-78
2024/02/08 09:06:56;;;;;;;9.83;3.00;;;;;;;8.97;61.84;99605.37;124704;1102;104178;-79
2024/02/08 09:09:54;;;;;;;5.00;2.00;;;;;;;8.85;62.19;99599.80;124367;1102;104642;-78
2024/02/08 09:12:28;;;;;;;5.70;2.30;;;;;;;8.78;61.45;99596.13;124385;1102;102739;-78
2024/02/08 09:15:19;;;;;;;3.97;1.97;;;;;;;8.71;61.55;99602.92;124036;1102;104340;-78
2024/02/08 09:17:57;;;;;;;4.03;2.17;;;;;;;8.67;62.08;99592.33;124110;1102;104213;-78
2024/02/08 09:20:29;;;;;;;6.03;2.57;;;;;;;8.65;61.56;99597.52;124052;1101;104191;-78
2024/02/08 09:23:12;;;;;;;9.10;3.50;;;;;;;8.67;61.60;99619.36;124393;1102;104354;-78
2024/02/08 09:25:45;;;;;;;11.23;3.30;;;;;;;8.70;61.89;99618.58;124182;1102;104313;-78
2024/02/08 09:28:29;;;;;;;5.50;2.95;;;;;;;8.72;61.98;99619.49;124705;1102;104287;-78
2024/02/08 09:31:12;;;;;;;7.78;3.20;;;;;;;8.72;61.90;99622.11;124569;1102;107876;-78
2024/02/08 09:33:48;;;;;;;3.53;2.30;;;;;;;8.69;61.55;99616.79;124250;1102;104252;-78
2024/02/08 09:36:21;;;;;;;9.53;2.43;;;;;;;8.64;62.11;99614.04;124824;1102;104287;-78
2024/02/08 09:38:52;;;;;;;7.53;2.50;;;;;;;8.63;61.70;99609.64;124437;1102;104220;-77
2024/02/08 09:41:24;;;;;;;8.17;2.23;;;;;;;8.59;61.24;99611.29;124210;1102;104369;-78
2024/02/08 09:43:57;;;;;;;7.83;2.33;;;;;;;8.57;61.60;99615.59;124414;1105;103358;-78
2024/02/08 09:49:21;;;;;;;6.50;2.63;;;;;;;8.62;62.08;99606.15;124363;1102;103745;-79
2024/02/08 09:52:16;;;;;;;5.47;2.70;;;;;;;8.61;61.50;99608.72;124414;1102;104194;-79
2024/02/08 09:54:54;;;;;;;4.00;2.45;;;;;;;8.52;61.23;99608.45;124326;1102;104306;-78
2024/02/08 09:57:31;;;;;;;10.37;3.83;;;;;;;8.45;61.54;99610.00;124611;1102;104229;-78
2024/02/08 10:00:10;;;;;;;16.20;6.57;;;;;;;8.36;61.53;99609.69;124068;1102;104223;-77
2024/02/08 10:03:03;;;;;;;14.07;5.00;;;;;;;8.32;61.44;99599.97;124199;1105;104265;-77
2024/02/08 10:08:50;;;;;;;7.53;3.80;;;;;;;8.36;61.97;99587.04;124259;1102;104281;-80
2024/02/08 10:11:35;;;;;;;6.57;2.80;;;;;;;8.34;62.54;99575.66;124315;1102;104189;-78
2024/02/08 10:14:32;;;;;;;5.45;2.65;;;;;;;8.35;62.19;99593.12;124404;1102;104211;-79
2024/02/08 10:17:18;;;;;;;6.03;2.90;;;;;;;8.33;62.29;99592.17;124089;1103;104364;-79
2024/02/08 10:22:56;;;;;;;5.60;2.53;;;;;;;8.52;62.80;99603.22;124677;1102;102792;-78
2024/02/08 10:28:21;;;;;;;5.80;2.13;;;;;;;8.78;62.38;99602.23;124166;1102;104338;-78
2024/02/08 10:31:07;;;;;;;7.57;2.50;;;;;;;8.78;60.85;99603.98;124161;1102;104163;-78
2024/02/08 10:33:57;;;;;;;7.00;2.53;;;;;;;8.79;61.70;99605.77;124074;1102;102315;-78
2024/02/08 10:36:39;;;;;;;3.90;2.20;;;;;;;8.80;61.59;99600.58;123982;1102;105683;-78
2024/02/08 10:39:25;;;;;;;4.85;2.60;;;;;;;8.77;62.03;99610.04;123927;1102;104406;-78
2024/02/08 10:41:59;;;;;;;5.47;2.70;;;;;;;8.77;62.38;99604.81;124140;1102;102419;-77
2024/02/08 10:44:34;;;;;;;6.73;2.70;;;;;;;8.79;62.04;99601.41;124139;1102;104477;-78
2024/02/08 10:47:07;;;;;;;7.67;2.90;;;;;;;8.78;61.96;99599.63;124227;1102;104652;-78
2024/02/08 10:49:50;;;;;;;5.40;2.85;;;;;;;8.77;61.98;99610.04;124338;1102;104233;-79
2024/02/08 10:52:22;;;;;;;7.63;3.07;;;;;;;8.78;61.85;99611.83;124026;1102;104232;-78
2024/02/08 10:54:56;;;;;;;8.30;3.23;;;;;;;8.80;61.70;99607.52;124052;1102;104278;-79
2024/02/08 10:57:39;;;;;;;6.37;2.70;;;;;;;8.76;61.48;99610.91;124246;1102;104166;-79
2024/02/08 11:03:07;;;;;;;8.40;3.10;;;;;;;8.60;61.92;99606.94;124149;1103;118647;-78
2024/02/08 11:05:48;;;;;;;7.97;2.83;;;;;;;8.53;61.51;99610.23;124247;1102;102444;-78
2024/02/08 11:08:32;;;;;;;7.23;3.20;;;;;;;8.45;61.83;99618.72;124579;1102;104280;-79
2024/02/08 11:11:09;;;;;;;8.57;2.83;;;;;;;8.39;61.95;99613.27;124613;1102;104281;-78
2024/02/08 11:13:50;;;;;;;5.73;2.50;;;;;;;8.42;61.75;99604.64;124180;1102;103817;-78
2024/02/08 11:16:27;;;;;;;4.90;2.80;;;;;;;8.48;62.01;99610.09;124073;1106;104229;-79
2024/02/08 11:19:04;;;;;;;6.63;3.07;;;;;;;8.51;61.83;99601.43;124178;1102;104329;-78
2024/02/08 11:21:43;;;;;;;5.30;2.70;;;;;;;8.54;62.09;99598.91;124115;1102;102227;-79
2024/02/08 11:24:27;;;;;;;5.67;3.20;;;;;;;8.59;61.93;99592.98;124324;1102;104178;-79
2024/02/08 11:27:01;;;;;;;;;;;;;;;8.51;61.06;99594.50;124458;1102;104197;-79
2024/02/08 11:29:45;;;;;;;4.13;2.40;;;;;;;8.44;60.98;99580.33;124364;1102;104252;-79
2024/02/08 11:32:18;;;;;;;5.62;3.00;;;;;;;8.38;61.44;99585.38;124375;1102;104178;-79
2024/02/08 11:34:54;;;;;;;7.35;2.80;;;;;;;8.35;60.95;99603.58;124782;1102;104233;-79
2024/02/08 11:37:37;;;;;;;4.40;2.80;;;;;;;8.33;61.64;99609.59;124345;1102;104233;-78
2024/02/08 11:40:19;;;;;;;9.03;3.37;;;;;;;8.31;61.28;99606.94;124268;1105;104264;-78
2024/02/08 11:42:51;;;;;;;5.73;3.13;;;;;;;8.32;61.75;99605.20;124203;1102;104185;-79
2024/02/08 11:45:27;;;;;;;7.33;3.17;;;;;;;8.31;61.33;99600.83;124021;1102;104254;-79
2024/02/08 11:48:04;;;;;;;6.20;3.00;;;;;;;8.34;61.35;99598.31;124440;1102;104197;-79
2024/02/08 11:50:37;;;;;;;9.25;3.25;;;;;;;8.36;61.22;99596.62;124231;1102;104227;-79
2024/02/08 11:53:09;;;;;;;6.73;3.40;;;;;;;8.45;61.38;99596.93;124209;1102;102483;-78
2024/02/08 11:55:44;;;;;;;6.53;3.40;;;;;;;8.50;61.18;99590.09;124347;1102;104261;-79
2024/02/08 11:58:17;;;;;;;12.00;4.50;;;;;;;8.55;61.21;99588.49;124116;1102;102250;-78
2024/02/08 12:00:50;;;;;;;10.43;4.30;;;;;;;8.67;61.61;99587.97;124044;1102;104299;-78
2024/02/08 12:03:22;;;;;;;10.30;3.90;;;;;;;8.71;61.82;99588.94;124254;1102;104185;-78
2024/02/08 12:05:57;;;;;;;6.70;3.50;;;;;;;8.66;61.14;99580.95;125139;1101;104028;-78
2024/02/08 12:08:29;;;;;;;6.90;3.25;;;;;;;8.60;61.47;99573.84;124257;1102;104208;-79
2024/02/08 12:11:01;;;;;;;11.67;4.00;;;;;;;8.58;61.36;99579.86;124348;1102;104188;-78
2024/02/08 12:13:44;;;;;;;7.37;3.47;;;;;;;8.54;61.71;99565.83;124001;1102;104258;-78
2024/02/08 12:16:29;;;;;;;10.13;4.00;;;;;;;8.51;61.01;99560.50;124132;1102;104251;-78
2024/02/08 12:19:05;;;;;;;10.27;3.57;;;;;;;8.53;61.73;99552.70;124225;1102;103303;-78
2024/02/08 12:21:41;;;;;;;12.23;4.00;;;;;;;8.54;61.05;99560.59;123980;1105;104251;-77
2024/02/08 12:24:15;;;;;;;8.73;3.50;;;;;;;8.57;61.63;99555.45;124128;1102;104466;-78
2024/02/08 12:26:54;;;;;;;9.05;3.95;;;;;;;8.58;61.33;99558.94;124273;1102;104107;-79
2024/02/08 12:29:29;;;;;;;7.43;4.10;;;;;;;8.54;61.42;99571.05;124231;1102;104332;-80
2024/02/08 12:32:16;;;;;;;12.40;4.70;;;;;;;8.54;61.49;99565.83;124309;1102;104257;-78
2024/02/08 12:34:48;;;;;;;12.07;3.90;;;;;;;8.59;61.32;99565.95;124018;1102;104737;-78
2024/02/08 12:37:27;;;;;;;9.60;3.90;;;;;;;8.58;61.69;99564.17;123994;1102;104294;-78
2024/02/08 12:39:59;;;;;;;7.20;3.60;;;;;;;8.62;61.55;99568.66;124113;1102;104271;-79
2024/02/08 12:42:30;;;;;;;9.77;4.63;;;;;;;8.69;61.49;99569.71;124155;1102;104278;-79
2024/02/08 12:45:02;;;;;;;10.87;4.30;;;;;;;8.62;61.19;99560.81;124214;1102;104270;-78
2024/02/08 12:47:33;;;;;;;9.00;4.03;;;;;;;8.68;61.19;99558.37;124287;1102;104305;-78
2024/02/08 12:50:09;;;;;;;14.20;4.43;;;;;;;8.77;61.39;99570.80;124201;1102;104450;-78
2024/02/08 12:52:48;;;;;;;10.83;4.00;;;;;;;8.76;61.38;99561.20;124019;1102;104268;-79
2024/02/08 12:55:22;;;;;;;6.63;3.40;;;;;;;8.70;61.06;99561.03;123962;1102;112048;-78
2024/02/08 12:58:13;;;;;;;10.13;4.03;;;;;;;8.66;61.44;99560.03;124147;1101;104261;-78
2024/02/08 13:00:45;;;;;;;9.10;4.20;;;;;;;8.66;61.87;99559.16;124073;1102;104296;-78
2024/02/08 13:03:18;;;;;;;12.57;4.47;;;;;;;8.67;61.83;99563.56;123790;1102;104562;-78
2024/02/08 13:05:50;;;;;;;9.00;4.07;;;;;;;8.68;61.18;99565.31;124113;1102;104249;-78
2024/02/08 13:08:22;;;;;;;8.30;3.97;;;;;;;8.61;61.72;99565.14;124069;1102;104386;-78
2024/02/08 13:10:58;;;;;;;8.10;3.70;;;;;;;8.52;61.24;99572.72;124150;1102;104299;-79
2024/02/08 13:13:30;;;;;;;7.83;3.77;;;;;;;8.39;61.25;99570.57;124603;1102;104165;-79
2024/02/08 13:16:09;;;;;;;9.40;4.00;;;;;;;8.26;61.05;99578.05;124011;1102;108331;-78
2024/02/08 13:18:43;;;;;;;10.20;4.47;;;;;;;8.19;61.63;99570.84;124042;1105;104089;-77
2024/02/08 13:21:14;;;;;;;33.37;14.47;;;;;;;8.12;61.50;99571.52;123879;1102;104313;-78
2024/02/08 13:23:52;;;;;;;29.40;11.83;;;;;;;8.10;61.21;99562.72;123958;1102;104277;-78
2024/02/08 13:26:40;;;;;;;;;;;;;;;8.12;62.07;99562.77;124490;1103;112247;-78
2024/02/08 13:29:13;;;;;;;12.53;5.20;;;;;;;8.15;61.95;99562.86;123825;1102;102848;-79
2024/02/08 13:31:51;;;;;;;9.03;3.90;;;;;;;8.14;61.49;99564.60;124054;1105;104271;-78
2024/02/08 13:34:24;;;;;;;9.93;4.30;;;;;;;8.08;61.89;99559.19;124137;1102;104211;-78
2024/02/08 13:36:59;;;;;;;9.07;4.17;;;;;;;8.09;62.22;99559.23;124037;1101;104208;-79
2024/02/08 13:39:32;;;;;;;9.33;3.93;;;;;;;8.13;62.01;99561.94;124494;1101;103937;-79
2024/02/08 13:42:04;;;;;;;8.27;3.87;;;;;;;8.08;62.29;99553.97;124154;1102;104271;-78
2024/02/08 13:44:36;;;;;;;9.80;4.00;;;;;;;8.04;62.12;99562.53;124319;1102;103290;-78
2024/02/08 13:47:16;;;;;;;7.13;3.87;;;;;;;8.02;62.50;99579.90;123926;1102;104338;-79
2024/02/08 13:49:49;;;;;;;13.33;3.70;;;;;;;8.02;62.05;99575.55;123958;1102;104297;-78
2024/02/08 13:52:20;;;;;;;20.05;5.10;;;;;;;8.07;62.22;99584.44;124128;1102;104734;-77
2024/02/08 13:54:55;;;;;;;11.35;4.67;;;;;;;8.06;62.63;99582.66;124141;1102;104182;-79
2024/02/08 13:57:27;;;;;;;11.67;4.20;;;;;;;8.00;62.58;99586.81;124322;1102;104189;-79